createdAt,value
2023-05-16T00:01:30.226Z,10.95
2023-05-16T00:03:57.556Z,10.98
2023-05-16T00:06:24.035Z,11.04
2023-05-16T00:08:50.626Z,11.03
2023-05-16T00:11:17.386Z,10.98
2023-05-16T00:13:44.341Z,11.05
2023-05-16T00:16:11.613Z,11.09
2023-05-16T00:18:38.829Z,10.98
2023-05-16T00:21:05.373Z,10.87
2023-05-16T00:23:31.928Z,11.00
2023-05-16T00:25:58.334Z,11.02
2023-05-16T00:28:24.889Z,10.98
2023-05-16T00:30:51.266Z,11.00
2023-05-16T00:33:17.746Z,11.00
2023-05-16T00:35:44.262Z,11.03
2023-05-16T00:38:10.638Z,10.98
2023-05-16T00:40:37.056Z,10.93
2023-05-16T00:43:03.404Z,10.90
2023-05-16T00:45:29.874Z,10.93
2023-05-16T00:47:56.529Z,11.01
2023-05-16T00:50:22.930Z,11.04
2023-05-16T00:52:49.289Z,10.94
2023-05-16T00:55:15.821Z,10.98
2023-05-16T00:57:42.216Z,11.00
2023-05-16T01:00:12.138Z,11.00
2023-05-16T01:02:38.907Z,10.92
2023-05-16T01:05:05.610Z,10.93
2023-05-16T01:07:32.076Z,10.84
2023-05-16T01:09:58.666Z,10.92
2023-05-16T01:12:34.092Z,10.91
2023-05-16T01:15:02.860Z,10.93
2023-05-16T01:17:29.221Z,11.01
2023-05-16T01:20:38.331Z,10.98
2023-05-16T01:23:16.592Z,10.95
2023-05-16T01:26:08.608Z,11.07
2023-05-16T01:28:35.325Z,11.06
2023-05-16T01:31:01.701Z,11.03
2023-05-16T01:33:28.300Z,10.98
2023-05-16T01:36:03.942Z,10.98
2023-05-16T01:38:33.969Z,11.03
2023-05-16T01:41:03.540Z,11.00
2023-05-16T01:43:38.708Z,11.07
2023-05-16T01:46:10.743Z,11.02
2023-05-16T01:48:43.758Z,11.09
2023-05-16T01:51:10.093Z,11.06
2023-05-16T01:53:39.533Z,11.03
2023-05-16T01:56:09.378Z,11.05
2023-05-16T01:58:36.803Z,11.02
2023-05-16T02:01:04.325Z,10.99
2023-05-16T02:03:31.375Z,11.02
2023-05-16T02:05:58.009Z,10.94
2023-05-16T02:08:25.120Z,10.94
2023-05-16T02:10:51.618Z,10.80
2023-05-16T02:13:18.124Z,10.78
2023-05-16T02:15:44.769Z,10.69
2023-05-16T02:18:11.341Z,10.84
2023-05-16T02:20:37.843Z,10.93
2023-05-16T02:23:04.213Z,10.83
2023-05-16T02:25:30.618Z,10.93
2023-05-16T02:27:56.999Z,10.90
2023-05-16T02:30:23.391Z,10.93
2023-05-16T02:32:50.059Z,10.98
2023-05-16T02:35:16.427Z,10.92
2023-05-16T02:37:42.787Z,10.93
2023-05-16T02:40:09.901Z,10.98
2023-05-16T02:42:36.245Z,11.07
2023-05-16T02:45:04.242Z,11.05
2023-05-16T02:47:30.784Z,11.04
2023-05-16T02:49:57.237Z,11.07
2023-05-16T02:52:23.649Z,11.02
2023-05-16T02:55:09.394Z,10.96
2023-05-16T02:57:37.376Z,11.07
2023-05-16T03:00:06.184Z,11.09
2023-05-16T03:02:32.823Z,11.09
2023-05-16T03:04:59.357Z,11.08
2023-05-16T03:07:25.814Z,11.12
2023-05-16T03:09:52.364Z,11.12
2023-05-16T03:12:18.700Z,11.22
2023-05-16T03:14:45.492Z,11.30
2023-05-16T03:17:11.856Z,11.25
2023-05-16T03:19:38.258Z,11.18
2023-05-16T03:22:04.638Z,11.23
2023-05-16T03:24:31.131Z,11.26
2023-05-16T03:26:57.617Z,11.08
2023-05-16T03:29:24.223Z,11.17
2023-05-16T03:31:50.704Z,11.19
2023-05-16T03:34:17.075Z,11.18
2023-05-16T03:36:43.514Z,11.18
2023-05-16T03:39:09.872Z,11.13
2023-05-16T03:41:36.240Z,11.18
2023-05-16T03:44:02.604Z,11.11
2023-05-16T03:46:29.063Z,11.08
2023-05-16T03:48:55.803Z,11.12
2023-05-16T03:51:22.167Z,11.04
2023-05-16T03:53:48.732Z,11.05
2023-05-16T03:56:15.075Z,10.96
2023-05-16T03:58:41.620Z,11.02
2023-05-16T04:01:07.986Z,10.98
2023-05-16T04:03:34.342Z,10.91
2023-05-16T04:06:00.979Z,10.86
2023-05-16T04:08:27.576Z,10.89
2023-05-16T04:10:53.949Z,10.90
2023-05-16T04:13:20.446Z,10.73
2023-05-16T04:15:46.945Z,10.62
2023-05-16T04:18:13.456Z,10.63
2023-05-16T04:20:39.894Z,10.70
2023-05-16T04:23:06.247Z,10.53
2023-05-16T04:25:32.690Z,10.57
2023-05-16T04:27:59.094Z,10.59
2023-05-16T04:30:25.826Z,10.56
2023-05-16T04:32:52.254Z,10.46
2023-05-16T04:35:18.866Z,10.59
2023-05-16T04:37:45.597Z,10.66
2023-05-16T04:40:13.072Z,10.69
2023-05-16T04:42:39.810Z,10.79
2023-05-16T04:45:07.327Z,10.72
2023-05-16T04:47:33.766Z,10.77
2023-05-16T04:50:00.838Z,10.85
2023-05-16T04:52:27.190Z,10.76
2023-05-16T04:54:53.590Z,10.83
2023-05-16T04:57:20.227Z,10.94
2023-05-16T04:59:46.601Z,10.83
2023-05-16T05:02:13.046Z,10.76
2023-05-16T05:04:39.758Z,10.90
2023-05-16T05:07:06.186Z,10.97
2023-05-16T05:09:32.645Z,10.95
2023-05-16T05:11:59.066Z,10.86
2023-05-16T05:14:25.441Z,10.85
2023-05-16T05:16:51.824Z,10.94
2023-05-16T05:19:18.481Z,10.84
2023-05-16T05:21:45.403Z,10.95
2023-05-16T05:24:11.763Z,10.97
2023-05-16T05:26:38.351Z,10.97
2023-05-16T05:29:06.049Z,11.08
2023-05-16T05:31:34.649Z,11.10
2023-05-16T05:34:01.195Z,11.18
2023-05-16T05:36:27.651Z,11.13
2023-05-16T05:38:54.360Z,11.12
2023-05-16T05:41:21.741Z,11.13
2023-05-16T05:43:48.123Z,11.08
2023-05-16T05:46:14.530Z,11.08
2023-05-16T05:48:41.094Z,10.95
2023-05-16T05:51:07.435Z,10.62
2023-05-16T05:53:34.483Z,10.55
2023-05-16T05:56:00.867Z,10.50
2023-05-16T05:58:27.222Z,10.28
2023-05-16T06:00:53.560Z,10.32
2023-05-16T06:03:21.293Z,10.32
2023-05-16T06:05:48.124Z,10.30
2023-05-16T06:08:14.668Z,10.36
2023-05-16T06:10:41.277Z,10.42
2023-05-16T06:13:07.629Z,10.55
2023-05-16T06:15:34.008Z,10.56
2023-05-16T06:18:00.614Z,10.64
2023-05-16T06:20:27.019Z,10.63
2023-05-16T06:22:53.608Z,10.60
2023-05-16T06:25:20.015Z,10.71
2023-05-16T06:27:46.444Z,10.83
2023-05-16T06:30:13.122Z,10.73
2023-05-16T06:32:41.362Z,10.55
2023-05-16T06:35:09.379Z,10.59
2023-05-16T06:37:35.929Z,10.63
2023-05-16T06:40:02.359Z,10.63
2023-05-16T06:42:28.777Z,10.64
2023-05-16T06:44:55.277Z,10.68
2023-05-16T06:47:21.856Z,10.68
2023-05-16T06:49:48.472Z,10.81
2023-05-16T06:52:14.871Z,10.86
2023-05-16T06:54:41.266Z,10.88
2023-05-16T06:57:08.592Z,11.02
2023-05-16T06:59:35.873Z,11.07
2023-05-16T07:02:02.476Z,11.10
2023-05-16T07:04:28.876Z,11.16
2023-05-16T07:06:55.271Z,11.14
2023-05-16T07:09:21.724Z,11.07
2023-05-16T07:11:48.095Z,11.12
2023-05-16T07:14:14.689Z,11.19
2023-05-16T07:16:41.185Z,11.27
2023-05-16T07:19:08.577Z,11.36
2023-05-16T07:21:35.261Z,11.58
2023-05-16T07:24:01.826Z,11.52
2023-05-16T07:26:28.263Z,11.49
2023-05-16T07:28:55.179Z,11.44
2023-05-16T07:31:21.727Z,11.61
2023-05-16T07:33:49.325Z,11.56
2023-05-16T07:36:17.457Z,11.53
2023-05-16T07:38:44.738Z,11.61
2023-05-16T07:41:11.333Z,11.69
2023-05-16T07:43:37.818Z,11.69
2023-05-16T07:46:04.664Z,11.63
2023-05-16T07:48:31.097Z,11.72
2023-05-16T07:50:57.995Z,11.73
2023-05-16T07:53:24.468Z,11.76
2023-05-16T07:55:51.082Z,11.90
2023-05-16T07:58:17.473Z,12.00
2023-05-16T08:00:43.867Z,11.79
2023-05-16T08:03:10.618Z,11.75
2023-05-16T08:05:37.266Z,11.65
2023-05-16T08:08:07.079Z,11.59
2023-05-16T08:10:36.217Z,11.74
2023-05-16T08:13:02.740Z,11.83
2023-05-16T08:15:30.521Z,11.92
2023-05-16T08:17:59.904Z,11.84
2023-05-16T08:20:26.585Z,11.91
2023-05-16T08:22:53.188Z,11.94
2023-05-16T08:25:19.714Z,11.82
2023-05-16T08:27:46.729Z,11.96
2023-05-16T08:30:14.110Z,12.08
2023-05-16T08:32:40.596Z,12.20
2023-05-16T08:35:07.557Z,12.49
2023-05-16T08:37:34.897Z,12.49
2023-05-16T08:40:01.549Z,12.51
2023-05-16T08:42:27.947Z,12.50
2023-05-16T08:44:54.991Z,12.44
2023-05-16T08:47:21.961Z,12.66
2023-05-16T08:49:48.592Z,12.74
2023-05-16T08:52:17.674Z,12.81
2023-05-16T08:54:44.337Z,12.75
2023-05-16T08:57:11.314Z,12.72
2023-05-16T08:59:37.720Z,12.73
2023-05-16T09:02:05.094Z,12.94
2023-05-16T09:04:31.720Z,12.92
2023-05-16T09:06:58.274Z,12.85
2023-05-16T09:09:24.700Z,12.99
2023-05-16T09:11:51.110Z,12.79
2023-05-16T09:14:17.813Z,12.75
2023-05-16T09:16:45.550Z,12.77
2023-05-16T09:19:13.079Z,12.87
2023-05-16T09:21:39.507Z,13.06
2023-05-16T09:24:09.505Z,13.20
2023-05-16T09:26:37.875Z,13.28
2023-05-16T09:29:13.859Z,13.29
2023-05-16T09:31:40.395Z,13.17
2023-05-16T09:34:12.128Z,13.26
2023-05-16T09:36:38.610Z,13.27
2023-05-16T09:39:06.850Z,13.33
2023-05-16T09:41:34.271Z,13.66
2023-05-16T09:44:01.727Z,13.72
2023-05-16T09:46:28.371Z,13.72
2023-05-16T09:48:54.817Z,13.72
2023-05-16T09:51:24.358Z,13.81
2023-05-16T09:53:50.773Z,13.68
2023-05-16T09:56:17.145Z,13.68
2023-05-16T09:58:44.370Z,13.89
2023-05-16T10:01:11.202Z,13.78
2023-05-16T10:03:39.286Z,13.87
2023-05-16T10:06:06.775Z,13.91
2023-05-16T10:08:36.439Z,14.00
2023-05-16T10:11:06.040Z,14.20
2023-05-16T10:13:33.868Z,14.15
2023-05-16T10:16:01.681Z,14.21
2023-05-16T10:18:31.691Z,14.33
2023-05-16T10:21:09.605Z,14.58
2023-05-16T10:23:38.278Z,14.77
2023-05-16T10:26:06.047Z,15.04
2023-05-16T10:28:32.747Z,14.62
2023-05-16T10:30:59.177Z,14.32
2023-05-16T10:33:26.148Z,14.34
2023-05-16T10:35:52.788Z,14.57
2023-05-16T10:38:19.688Z,14.61
2023-05-16T10:40:46.357Z,14.70
2023-05-16T10:43:14.155Z,15.07
2023-05-16T10:45:41.883Z,15.21
2023-05-16T10:48:11.651Z,15.38
2023-05-16T10:50:44.047Z,15.15
2023-05-16T10:53:19.750Z,14.54
2023-05-16T10:55:58.703Z,14.47
2023-05-16T10:58:25.448Z,14.99
2023-05-16T11:01:18.465Z,15.64
2023-05-16T11:03:57.315Z,15.89
2023-05-16T11:06:53.586Z,16.24
2023-05-16T11:09:22.316Z,16.64
2023-05-16T11:11:51.849Z,16.98
2023-05-16T11:14:47.598Z,17.24
2023-05-16T11:17:15.429Z,17.51
2023-05-16T11:19:45.943Z,17.73
2023-05-16T11:22:23.467Z,16.99
2023-05-16T11:25:03.392Z,17.34
2023-05-16T11:27:29.788Z,16.93
2023-05-16T11:30:02.845Z,16.60
2023-05-16T11:32:30.272Z,16.17
2023-05-16T11:34:56.751Z,17.34
2023-05-16T11:37:23.253Z,17.86
2023-05-16T11:39:49.840Z,16.88
2023-05-16T11:42:16.598Z,16.49
2023-05-16T11:44:43.031Z,16.09
2023-05-16T11:47:09.665Z,15.64
2023-05-16T11:49:36.313Z,15.55
2023-05-16T11:52:03.900Z,15.63
2023-05-16T11:54:31.790Z,16.03
2023-05-16T11:56:58.211Z,17.15
2023-05-16T11:59:24.669Z,17.80
2023-05-16T12:01:51.265Z,18.54
2023-05-16T12:04:18.047Z,19.29
2023-05-16T12:06:45.153Z,19.15
2023-05-16T12:09:12.550Z,19.30
2023-05-16T12:11:45.490Z,18.22
2023-05-16T12:14:13.018Z,17.59
2023-05-16T12:16:39.814Z,16.97
2023-05-16T12:19:06.467Z,16.46
2023-05-16T12:21:32.931Z,16.17
2023-05-16T12:23:59.464Z,17.39
2023-05-16T12:26:31.040Z,18.08
2023-05-16T12:29:00.702Z,17.51
2023-05-16T12:31:32.204Z,17.89
2023-05-16T12:33:58.915Z,17.37
2023-05-16T12:36:26.305Z,17.50
2023-05-16T12:38:53.364Z,18.49
2023-05-16T12:41:21.486Z,18.51
2023-05-16T12:43:51.047Z,17.88
2023-05-16T12:46:19.703Z,17.64
2023-05-16T12:48:47.997Z,16.98
2023-05-16T12:51:18.587Z,17.46
2023-05-16T12:53:57.747Z,18.57
2023-05-16T12:56:32.419Z,18.95
2023-05-16T12:58:58.889Z,19.57
2023-05-16T13:01:25.491Z,20.11
2023-05-16T13:03:52.222Z,19.12
2023-05-16T13:06:18.726Z,18.52
2023-05-16T13:08:45.277Z,18.98
2023-05-16T13:11:11.870Z,19.97
2023-05-16T13:13:38.414Z,20.07
2023-05-16T13:16:05.235Z,20.89
2023-05-16T13:18:31.998Z,20.12
2023-05-16T13:20:58.512Z,19.22
2023-05-16T13:23:25.098Z,19.55
2023-05-16T13:25:53.001Z,19.69
2023-05-16T13:28:19.498Z,19.02
2023-05-16T13:30:46.010Z,18.57
2023-05-16T13:33:12.582Z,18.24
2023-05-16T13:35:39.107Z,18.35
2023-05-16T13:38:05.676Z,18.26
2023-05-16T13:40:32.111Z,19.30
2023-05-16T13:42:59.025Z,19.54
2023-05-16T13:45:26.256Z,19.78
2023-05-16T13:47:52.904Z,19.76
2023-05-16T13:50:19.522Z,20.38
2023-05-16T13:52:47.467Z,20.64
2023-05-16T13:55:16.633Z,19.93
2023-05-16T13:57:43.095Z,18.70
2023-05-16T14:02:42.457Z,17.93
2023-05-16T14:05:09.534Z,18.37
2023-05-16T14:07:36.295Z,19.06
2023-05-16T14:10:04.128Z,19.40
2023-05-16T14:12:31.131Z,18.67
2023-05-16T14:14:57.566Z,19.27
2023-05-16T14:17:24.014Z,19.27
2023-05-16T14:19:50.504Z,18.56
2023-05-16T14:22:18.772Z,19.16
2023-05-16T14:24:45.419Z,19.68
2023-05-16T14:27:12.137Z,20.08
2023-05-16T14:29:38.599Z,20.01
2023-05-16T14:32:05.499Z,18.95
2023-05-16T14:34:32.698Z,19.01
2023-05-16T14:36:59.210Z,19.58
2023-05-16T14:39:27.242Z,20.25
2023-05-16T14:41:53.684Z,20.35
2023-05-16T14:44:24.662Z,20.65
2023-05-16T14:46:51.867Z,20.60
2023-05-16T14:49:18.288Z,20.90
2023-05-16T14:51:50.332Z,20.14
2023-05-16T14:54:17.143Z,19.73
2023-05-16T14:56:45.386Z,20.27
2023-05-16T14:59:12.642Z,20.60
2023-05-16T15:01:39.288Z,20.45
2023-05-16T15:04:05.778Z,20.86
2023-05-16T15:06:32.221Z,20.22
2023-05-16T15:08:58.890Z,20.05
2023-05-16T15:11:25.927Z,20.33
2023-05-16T15:13:52.427Z,20.58
2023-05-16T15:16:18.953Z,19.45
2023-05-16T15:18:45.392Z,18.76
2023-05-16T15:21:11.865Z,18.21
2023-05-16T15:23:38.369Z,18.93
2023-05-16T15:26:05.118Z,19.99
2023-05-16T15:28:31.582Z,20.92
2023-05-16T15:30:58.050Z,21.45
2023-05-16T15:33:24.449Z,21.51
2023-05-16T15:35:51.844Z,22.05
2023-05-16T15:38:18.287Z,22.21
2023-05-16T15:40:44.746Z,22.41
2023-05-16T15:43:11.130Z,21.55
2023-05-16T15:45:40.053Z,22.31
2023-05-16T15:48:07.103Z,21.97
2023-05-16T15:50:33.855Z,21.40
2023-05-16T15:53:00.776Z,21.91
2023-05-16T15:55:27.508Z,20.93
2023-05-16T15:57:57.120Z,21.76
2023-05-16T16:00:26.695Z,22.29
2023-05-16T16:02:53.365Z,21.93
2023-05-16T16:05:19.957Z,22.72
2023-05-16T16:07:46.556Z,23.01
2023-05-16T16:10:12.999Z,23.36
2023-05-16T16:12:39.436Z,22.08
2023-05-16T16:15:06.841Z,22.92
2023-05-16T16:17:33.547Z,21.27
2023-05-16T16:20:00.229Z,21.82
2023-05-16T16:22:26.923Z,19.12
2023-05-16T16:24:53.405Z,18.22
2023-05-16T16:27:19.783Z,19.46
2023-05-16T16:29:46.284Z,20.21
2023-05-16T16:32:12.713Z,18.70
2023-05-16T16:34:39.345Z,18.08
2023-05-16T16:37:06.026Z,20.77
2023-05-16T16:39:33.367Z,21.98
2023-05-16T16:41:59.930Z,21.41
2023-05-16T16:44:26.415Z,19.53
2023-05-16T16:46:52.846Z,19.00
2023-05-16T16:49:19.274Z,18.48
2023-05-16T16:51:47.188Z,18.51
2023-05-16T16:54:13.643Z,17.65
2023-05-16T16:56:40.051Z,17.64
2023-05-16T16:59:06.691Z,17.22
2023-05-16T17:01:33.288Z,17.67
2023-05-16T17:04:01.425Z,17.62
2023-05-16T17:06:29.879Z,17.58
2023-05-16T17:08:56.661Z,17.41
2023-05-16T17:11:23.502Z,17.36
2023-05-16T17:13:50.053Z,17.30
2023-05-16T17:16:16.730Z,16.73
2023-05-16T17:18:43.291Z,16.90
2023-05-16T17:21:12.765Z,16.56
2023-05-16T17:23:40.704Z,16.25
2023-05-16T17:26:08.957Z,16.33
2023-05-16T17:28:35.365Z,16.19
2023-05-16T17:31:02.897Z,15.91
2023-05-16T17:33:29.288Z,15.79
2023-05-16T17:35:56.270Z,15.57
2023-05-16T17:38:22.678Z,15.70
2023-05-16T17:40:49.070Z,15.52
2023-05-16T17:43:15.658Z,15.01
2023-05-16T17:45:42.190Z,14.90
2023-05-16T17:48:08.720Z,14.70
2023-05-16T17:50:35.347Z,14.78
2023-05-16T17:53:01.764Z,14.86
2023-05-16T17:55:28.350Z,14.87
2023-05-16T17:57:55.236Z,14.76
2023-05-16T18:00:22.605Z,14.77
2023-05-16T18:02:49.698Z,14.79
2023-05-16T18:05:16.665Z,14.77
2023-05-16T18:07:43.162Z,14.60
2023-05-16T18:10:11.321Z,14.64
2023-05-16T18:12:38.934Z,14.67
2023-05-16T18:15:06.216Z,14.60
2023-05-16T18:17:33.907Z,14.22
2023-05-16T18:20:08.991Z,14.24
2023-05-16T18:22:36.963Z,14.20
2023-05-16T18:25:04.548Z,14.16
2023-05-16T18:27:31.993Z,13.97
2023-05-16T18:29:58.407Z,13.98
2023-05-16T18:32:25.487Z,14.01
2023-05-16T18:34:52.119Z,13.95
2023-05-16T18:37:18.529Z,14.04
2023-05-16T18:39:45.057Z,14.11
2023-05-16T18:42:11.696Z,13.77
2023-05-16T18:44:38.099Z,13.65
2023-05-16T18:47:04.747Z,13.74
2023-05-16T18:49:33.327Z,13.30
2023-05-16T18:51:59.719Z,13.52
2023-05-16T18:54:26.138Z,13.44
2023-05-16T18:56:52.731Z,13.54
2023-05-16T18:59:19.131Z,13.34
2023-05-16T19:01:45.647Z,13.44
2023-05-16T19:04:12.110Z,13.45
2023-05-16T19:06:38.543Z,13.45
2023-05-16T19:09:05.604Z,13.39
2023-05-16T19:11:32.033Z,13.36
2023-05-16T19:13:58.425Z,13.34
2023-05-16T19:16:24.837Z,13.34
2023-05-16T19:18:52.028Z,13.18
2023-05-16T19:21:18.585Z,13.18
2023-05-16T19:23:46.016Z,13.16
2023-05-16T19:26:12.636Z,13.12
2023-05-16T19:28:40.610Z,12.97
2023-05-16T19:31:07.664Z,12.87
2023-05-16T19:33:34.082Z,12.79
2023-05-16T19:36:01.045Z,12.74
2023-05-16T19:38:27.470Z,12.73
2023-05-16T19:40:54.553Z,12.53
2023-05-16T19:43:21.040Z,12.65
2023-05-16T19:45:47.540Z,12.53
2023-05-16T19:48:14.173Z,12.41
2023-05-16T19:50:40.690Z,12.43
2023-05-16T19:53:07.086Z,12.42
2023-05-16T19:55:35.127Z,12.37
2023-05-16T19:58:02.161Z,12.26
2023-05-16T20:00:28.666Z,12.30
2023-05-16T20:02:55.543Z,12.13
2023-05-16T20:05:24.984Z,12.20
2023-05-16T20:07:53.287Z,12.30
2023-05-16T20:10:21.876Z,12.18
2023-05-16T20:12:48.568Z,12.07
2023-05-16T20:15:14.985Z,12.11
2023-05-16T20:17:41.760Z,12.16
2023-05-16T20:20:08.945Z,11.91
2023-05-16T20:22:38.566Z,11.86
2023-05-16T20:25:06.806Z,11.84
2023-05-16T20:27:33.445Z,11.72
2023-05-16T20:29:59.831Z,11.77
2023-05-16T20:32:26.260Z,11.82
2023-05-16T20:34:52.699Z,11.69
2023-05-16T20:37:20.926Z,11.59
2023-05-16T20:39:47.329Z,11.43
2023-05-16T20:42:13.707Z,11.50
2023-05-16T20:44:40.856Z,11.37
2023-05-16T20:47:07.684Z,11.22
2023-05-16T20:49:37.270Z,11.23
2023-05-16T20:52:04.025Z,11.26
2023-05-16T20:54:30.538Z,11.28
2023-05-16T20:56:56.924Z,11.28
2023-05-16T20:59:24.694Z,11.31
2023-05-16T21:01:51.666Z,11.31
2023-05-16T21:04:18.242Z,11.08
2023-05-16T21:06:45.093Z,11.03
2023-05-16T21:09:11.543Z,11.18
2023-05-16T21:11:37.933Z,11.16
2023-05-16T21:14:04.335Z,10.98
2023-05-16T21:16:31.335Z,11.14
2023-05-16T21:18:58.476Z,10.95
2023-05-16T21:21:25.228Z,11.08
2023-05-16T21:23:51.720Z,10.98
2023-05-16T21:26:18.153Z,10.85
2023-05-16T21:28:54.381Z,10.78
2023-05-16T21:31:22.140Z,10.67
2023-05-16T21:33:51.713Z,10.72
2023-05-16T21:36:19.106Z,10.53
2023-05-16T21:38:45.540Z,10.40
2023-05-16T21:41:12.018Z,10.54
2023-05-16T21:43:38.566Z,10.64
2023-05-16T21:46:05.021Z,10.57
2023-05-16T21:48:31.522Z,10.57
2023-05-16T21:50:58.010Z,10.53
2023-05-16T21:53:26.239Z,10.41
2023-05-16T21:55:52.655Z,10.31
2023-05-16T21:58:19.254Z,10.25
2023-05-16T22:00:46.055Z,10.30
2023-05-16T22:03:12.598Z,10.25
2023-05-16T22:05:39.054Z,10.25
2023-05-16T22:08:05.669Z,10.24
2023-05-16T22:10:33.220Z,10.29
2023-05-16T22:12:59.774Z,10.28
2023-05-16T22:15:26.717Z,10.11
2023-05-16T22:17:53.418Z,10.08
2023-05-16T22:20:21.564Z,10.00
2023-05-16T22:22:49.332Z,9.96
2023-05-16T22:25:15.769Z,9.90
2023-05-16T22:27:42.257Z,9.92
2023-05-16T22:30:09.246Z,9.86
2023-05-16T22:32:35.774Z,9.76
2023-05-16T22:35:02.220Z,9.88
2023-05-16T22:37:28.850Z,9.82
2023-05-16T22:39:56.951Z,9.68
2023-05-16T22:42:23.432Z,9.74
2023-05-16T22:44:50.300Z,9.77
2023-05-16T22:47:16.704Z,9.68
2023-05-16T22:49:43.107Z,9.77
2023-05-16T22:52:09.517Z,9.82
2023-05-16T22:54:35.913Z,9.76
2023-05-16T22:57:02.295Z,9.65
2023-05-16T22:59:28.769Z,9.49
2023-05-16T23:01:55.178Z,9.54
2023-05-16T23:04:21.576Z,9.57
2023-05-16T23:06:48.229Z,9.51
2023-05-16T23:09:14.617Z,9.48
2023-05-16T23:11:41.007Z,9.43
2023-05-16T23:14:07.597Z,9.38
2023-05-16T23:16:33.974Z,9.36
2023-05-16T23:19:00.580Z,9.39
2023-05-16T23:21:27.272Z,9.47
2023-05-16T23:23:53.970Z,9.56
2023-05-16T23:26:20.417Z,9.61
2023-05-16T23:28:46.842Z,9.64
2023-05-16T23:31:13.218Z,9.54
2023-05-16T23:33:39.656Z,9.52
2023-05-16T23:36:06.948Z,9.51
2023-05-16T23:38:33.336Z,9.60
2023-05-16T23:40:59.739Z,9.61
2023-05-16T23:43:26.358Z,9.52
2023-05-16T23:45:52.827Z,9.49
2023-05-16T23:48:19.327Z,9.50
2023-05-16T23:50:45.951Z,9.48
2023-05-16T23:53:12.444Z,9.50
2023-05-16T23:55:38.837Z,9.38
2023-05-16T23:58:05.532Z,9.32
